createdAt,value
2023-05-23T00:00:36.941Z,13.33
2023-05-23T00:02:10.364Z,13.37
2023-05-23T00:03:43.667Z,13.41
2023-05-23T00:05:18.128Z,13.39
2023-05-23T00:06:51.349Z,13.38
2023-05-23T00:08:26.192Z,13.32
2023-05-23T00:09:59.496Z,13.21
2023-05-23T00:11:32.297Z,13.18
2023-05-23T00:13:09.477Z,13.20
2023-05-23T00:14:41.740Z,13.18
2023-05-23T00:16:14.934Z,13.10
2023-05-23T00:17:48.690Z,13.08
2023-05-23T00:19:22.013Z,13.03
2023-05-23T00:20:55.370Z,13.07
2023-05-23T00:22:27.504Z,13.11
2023-05-23T00:24:04.970Z,13.13
2023-05-23T00:25:38.139Z,13.19
2023-05-23T00:27:11.630Z,13.22
2023-05-23T00:28:43.826Z,13.21
2023-05-23T00:30:17.534Z,13.24
2023-05-23T00:31:51.353Z,13.22
2023-05-23T00:33:25.060Z,13.24
2023-05-23T00:34:58.231Z,13.23
2023-05-23T00:36:31.612Z,13.26
2023-05-23T00:38:04.855Z,13.24
2023-05-23T00:39:39.484Z,13.20
2023-05-23T00:41:12.541Z,13.18
2023-05-23T00:42:46.306Z,13.15
2023-05-23T00:44:20.324Z,13.15
2023-05-23T00:45:53.958Z,13.10
2023-05-23T00:47:27.296Z,13.01
2023-05-23T00:49:00.934Z,13.01
2023-05-23T00:50:34.334Z,13.03
2023-05-23T00:52:08.254Z,13.06
2023-05-23T00:53:41.431Z,13.04
2023-05-23T00:55:16.924Z,13.03
2023-05-23T00:56:49.226Z,13.03
2023-05-23T00:58:23.148Z,13.04
2023-05-23T00:59:55.823Z,13.03
2023-05-23T01:01:29.467Z,13.01
2023-05-23T01:03:03.270Z,12.97
2023-05-23T01:04:38.134Z,12.94
2023-05-23T01:06:12.040Z,12.96
2023-05-23T01:07:44.532Z,13.00
2023-05-23T01:11:18.874Z,12.98
2023-05-23T01:13:06.598Z,12.97
2023-05-23T01:14:48.634Z,12.96
2023-05-23T01:16:31.563Z,12.93
2023-05-23T01:18:11.453Z,12.92
2023-05-23T01:19:56.772Z,12.97
2023-05-23T01:21:32.006Z,12.89
2023-05-23T01:23:24.690Z,12.88
2023-05-23T01:25:09.137Z,12.87
2023-05-23T01:27:02.481Z,12.83
2023-05-23T01:28:42.413Z,12.77
2023-05-23T01:30:19.895Z,12.67
2023-05-23T01:31:55.862Z,12.54
2023-05-23T01:33:30.968Z,12.43
2023-05-23T01:35:05.766Z,12.34
2023-05-23T01:36:41.943Z,12.28
2023-05-23T01:38:14.233Z,12.22
2023-05-23T01:39:47.812Z,12.24
2023-05-23T01:41:21.629Z,12.24
2023-05-23T01:42:57.743Z,12.31
2023-05-23T01:44:32.999Z,12.32
2023-05-23T01:46:09.250Z,12.31
2023-05-23T01:47:44.089Z,12.37
2023-05-23T01:49:19.622Z,12.39
2023-05-23T01:50:53.529Z,12.43
2023-05-23T01:52:26.558Z,12.42
2023-05-23T01:54:01.353Z,12.49
2023-05-23T01:55:35.594Z,12.50
2023-05-23T01:57:08.876Z,12.51
2023-05-23T01:58:42.478Z,12.50
2023-05-23T02:00:17.456Z,12.50
2023-05-23T02:01:53.286Z,12.41
2023-05-23T02:03:26.853Z,12.33
2023-05-23T02:05:00.128Z,12.30
2023-05-23T02:06:33.889Z,12.23
2023-05-23T02:08:06.112Z,12.23
2023-05-23T02:09:39.319Z,12.23
2023-05-23T02:11:12.505Z,12.26
2023-05-23T02:12:45.652Z,12.23
2023-05-23T02:14:19.728Z,12.23
2023-05-23T02:15:54.345Z,12.29
2023-05-23T02:17:27.228Z,12.32
2023-05-23T02:19:02.434Z,12.32
2023-05-23T02:20:35.790Z,12.32
2023-05-23T02:22:10.594Z,12.24
2023-05-23T02:23:43.728Z,12.19
2023-05-23T02:25:16.242Z,12.20
2023-05-23T02:26:49.428Z,12.18
2023-05-23T02:28:23.182Z,12.13
2023-05-23T02:29:56.447Z,12.09
2023-05-23T02:31:32.178Z,12.04
2023-05-23T02:33:06.909Z,11.90
2023-05-23T02:34:40.582Z,11.91
2023-05-23T02:36:14.211Z,11.98
2023-05-23T02:37:48.033Z,11.94
2023-05-23T02:39:22.096Z,11.89
2023-05-23T02:40:57.700Z,11.94
2023-05-23T02:42:30.953Z,11.94
2023-05-23T02:44:04.622Z,12.02
2023-05-23T02:45:38.662Z,12.03
2023-05-23T02:47:12.389Z,12.01
2023-05-23T02:48:45.809Z,12.06
2023-05-23T02:50:19.320Z,12.07
2023-05-23T02:51:51.594Z,12.07
2023-05-23T02:53:24.938Z,12.07
2023-05-23T02:54:57.280Z,12.04
2023-05-23T02:56:32.443Z,12.04
2023-05-23T02:58:05.973Z,12.02
2023-05-23T02:59:39.294Z,12.03
2023-05-23T03:01:12.737Z,12.06
2023-05-23T03:02:47.843Z,12.11
2023-05-23T03:04:21.512Z,12.13
2023-05-23T03:05:54.727Z,12.11
2023-05-23T03:07:28.800Z,12.16
2023-05-23T03:09:03.575Z,12.22
2023-05-23T03:10:36.679Z,12.27
2023-05-23T03:12:09.118Z,12.25
2023-05-23T03:13:42.282Z,12.19
2023-05-23T03:15:15.856Z,12.16
2023-05-23T03:16:50.246Z,12.17
2023-05-23T03:18:23.877Z,12.17
2023-05-23T03:19:57.218Z,12.18
2023-05-23T03:21:31.592Z,12.14
2023-05-23T03:23:03.958Z,12.08
2023-05-23T03:24:37.228Z,12.06
2023-05-23T03:26:10.846Z,12.10
2023-05-23T03:27:44.456Z,12.11
2023-05-23T03:29:18.226Z,12.13
2023-05-23T03:30:51.373Z,12.15
2023-05-23T03:32:24.536Z,12.13
2023-05-23T03:33:59.545Z,12.13
2023-05-23T03:35:31.663Z,12.12
2023-05-23T03:37:05.713Z,12.12
2023-05-23T03:38:38.913Z,12.17
2023-05-23T03:40:12.762Z,12.25
2023-05-23T03:41:46.211Z,12.31
2023-05-23T03:43:20.001Z,12.38
2023-05-23T03:44:54.634Z,12.42
2023-05-23T03:46:28.749Z,12.49
2023-05-23T03:48:02.871Z,12.51
2023-05-23T03:49:38.426Z,12.63
2023-05-23T03:51:13.502Z,12.69
2023-05-23T03:52:47.591Z,12.75
2023-05-23T03:54:19.893Z,12.80
2023-05-23T03:55:54.069Z,12.85
2023-05-23T03:57:27.756Z,12.91
2023-05-23T03:59:01.609Z,12.98
2023-05-23T04:00:34.874Z,13.10
2023-05-23T04:02:10.310Z,13.13
2023-05-23T04:03:43.641Z,13.19
2023-05-23T04:05:18.884Z,13.22
2023-05-23T04:06:53.397Z,13.23
2023-05-23T04:08:26.915Z,13.24
2023-05-23T04:09:59.183Z,13.34
2023-05-23T04:11:32.588Z,13.45
2023-05-23T04:13:06.586Z,13.55
2023-05-23T04:14:40.206Z,13.54
2023-05-23T04:16:13.032Z,13.39
2023-05-23T04:17:47.652Z,13.32
2023-05-23T04:19:19.901Z,13.42
2023-05-23T04:20:54.787Z,13.49
2023-05-23T04:22:27.970Z,13.61
2023-05-23T04:24:00.769Z,13.73
2023-05-23T04:25:34.275Z,13.85
2023-05-23T04:27:15.805Z,14.00
2023-05-23T04:28:50.347Z,14.04
2023-05-23T04:30:23.715Z,14.06
2023-05-23T04:31:57.254Z,14.11
2023-05-23T04:33:31.025Z,14.20
2023-05-23T04:35:04.640Z,14.32
2023-05-23T04:36:40.794Z,14.47
2023-05-23T04:38:14.607Z,14.51
2023-05-23T04:39:47.337Z,14.47
2023-05-23T04:41:34.553Z,14.50
2023-05-23T04:43:29.623Z,14.56
2023-05-23T04:45:19.547Z,14.64
2023-05-23T04:47:03.000Z,14.75
2023-05-23T04:49:00.792Z,14.86
2023-05-23T04:50:35.897Z,15.01
2023-05-23T04:52:11.602Z,15.15
2023-05-23T04:53:47.087Z,15.32
2023-05-23T04:55:21.877Z,15.45
2023-05-23T04:56:55.354Z,15.54
2023-05-23T04:58:31.888Z,15.61
2023-05-23T05:00:10.688Z,15.68
2023-05-23T05:01:44.697Z,15.71
2023-05-23T05:03:19.590Z,15.83
2023-05-23T05:04:54.070Z,15.95
2023-05-23T05:06:27.454Z,16.16
2023-05-23T05:08:02.041Z,16.31
2023-05-23T05:09:35.510Z,16.36
2023-05-23T05:11:08.906Z,16.46
2023-05-23T05:12:42.078Z,16.52
2023-05-23T05:14:15.799Z,16.57
2023-05-23T05:15:49.275Z,16.57
2023-05-23T05:17:23.757Z,16.56
2023-05-23T05:19:12.401Z,16.57
2023-05-23T05:20:45.952Z,16.57
2023-05-23T05:22:22.511Z,16.67
2023-05-23T05:23:57.753Z,16.88
2023-05-23T05:25:32.376Z,17.26
2023-05-23T05:27:06.480Z,17.73
2023-05-23T05:28:39.824Z,18.24
2023-05-23T05:30:13.784Z,18.56
2023-05-23T05:31:57.253Z,18.66
2023-05-23T05:33:36.032Z,18.39
2023-05-23T05:35:15.246Z,18.24
2023-05-23T05:36:50.028Z,18.18
2023-05-23T05:38:24.826Z,18.17
2023-05-23T05:39:59.669Z,18.48
2023-05-23T05:41:33.800Z,18.66
2023-05-23T05:43:06.952Z,18.94
2023-05-23T05:44:40.802Z,19.24
2023-05-23T05:46:14.892Z,19.59
2023-05-23T05:47:48.499Z,19.84
2023-05-23T05:49:22.397Z,19.90
2023-05-23T05:50:55.687Z,19.83
2023-05-23T05:52:29.091Z,19.78
2023-05-23T05:54:02.646Z,19.89
2023-05-23T05:55:37.182Z,20.01
2023-05-23T05:57:10.649Z,20.23
2023-05-23T05:58:44.394Z,20.58
2023-05-23T06:00:20.935Z,20.91
2023-05-23T06:02:01.634Z,21.22
2023-05-23T06:03:35.470Z,21.46
2023-05-23T06:05:12.347Z,21.77
2023-05-23T06:06:46.075Z,21.93
2023-05-23T06:08:19.316Z,21.91
2023-05-23T06:09:52.504Z,22.00
2023-05-23T06:11:28.096Z,22.26
2023-05-23T06:13:01.657Z,22.55
2023-05-23T06:14:35.084Z,22.95
2023-05-23T06:16:08.765Z,23.20
2023-05-23T06:17:42.512Z,23.44
2023-05-23T06:19:16.017Z,23.43
2023-05-23T06:20:49.275Z,23.32
2023-05-23T06:22:23.714Z,23.31
2023-05-23T06:23:57.376Z,23.32
2023-05-23T06:25:31.738Z,23.47
2023-05-23T06:27:05.982Z,23.52
2023-05-23T06:28:40.395Z,23.44
2023-05-23T06:30:14.916Z,23.56
2023-05-23T06:31:48.212Z,23.80
2023-05-23T06:33:21.428Z,23.91
2023-05-23T06:34:55.547Z,24.03
2023-05-23T06:36:28.832Z,24.15
2023-05-23T06:38:03.416Z,24.08
2023-05-23T06:39:36.875Z,24.01
2023-05-23T06:41:10.065Z,24.27
2023-05-23T06:42:45.822Z,24.51
2023-05-23T06:44:39.729Z,24.75
2023-05-23T06:46:12.891Z,24.85
2023-05-23T06:47:48.446Z,24.96
2023-05-23T06:49:22.446Z,25.20
2023-05-23T06:50:56.057Z,25.46
2023-05-23T06:52:29.705Z,25.71
2023-05-23T06:54:03.425Z,25.92
2023-05-23T06:55:36.953Z,25.91
2023-05-23T06:57:11.898Z,26.10
2023-05-23T06:58:47.258Z,26.12
2023-05-23T07:00:21.765Z,25.85
2023-05-23T07:02:08.109Z,25.34
2023-05-23T07:03:44.572Z,25.63
2023-05-23T07:05:18.945Z,26.02
2023-05-23T07:06:57.213Z,26.34
2023-05-23T07:08:30.776Z,26.22
2023-05-23T07:10:09.195Z,26.29
2023-05-23T07:11:43.051Z,26.27
2023-05-23T07:13:17.208Z,26.01
2023-05-23T07:14:51.917Z,26.10
2023-05-23T07:16:26.730Z,26.22
2023-05-23T07:18:08.141Z,26.31
2023-05-23T07:19:42.250Z,26.51
2023-05-23T07:21:15.420Z,26.51
2023-05-23T07:22:49.009Z,26.19
2023-05-23T07:24:24.492Z,26.02
2023-05-23T07:26:03.166Z,25.94
2023-05-23T07:28:08.907Z,26.10
2023-05-23T07:29:42.346Z,26.41
2023-05-23T07:31:18.918Z,25.94
2023-05-23T07:32:53.818Z,25.29
2023-05-23T07:34:30.746Z,24.94
2023-05-23T07:36:07.324Z,24.85
2023-05-23T07:37:40.788Z,25.18
2023-05-23T07:39:15.626Z,25.23
2023-05-23T07:40:55.631Z,25.33
2023-05-23T07:42:40.773Z,25.48
2023-05-23T07:44:14.303Z,25.42
2023-05-23T07:45:47.600Z,25.47
2023-05-23T07:47:22.370Z,25.46
2023-05-23T07:48:56.934Z,25.67
2023-05-23T07:50:30.301Z,25.74
2023-05-23T07:52:07.040Z,25.93
2023-05-23T07:53:41.522Z,26.29
2023-05-23T07:55:18.301Z,26.68
2023-05-23T07:56:51.798Z,27.05
2023-05-23T07:58:25.274Z,27.01
2023-05-23T07:59:59.280Z,27.36
2023-05-23T08:01:34.516Z,27.38
2023-05-23T08:03:12.127Z,27.76
2023-05-23T08:04:57.112Z,27.98
2023-05-23T08:06:32.090Z,28.22
2023-05-23T08:08:07.885Z,28.02
2023-05-23T08:09:41.872Z,28.15
2023-05-23T08:11:17.718Z,28.16
2023-05-23T08:12:56.628Z,28.46
2023-05-23T08:14:42.345Z,28.64
2023-05-23T08:16:44.347Z,28.68
2023-05-23T08:18:24.818Z,28.61
2023-05-23T08:19:58.017Z,28.47
2023-05-23T08:21:32.072Z,27.96
2023-05-23T08:23:06.377Z,27.77
2023-05-23T08:24:40.089Z,28.11
2023-05-23T08:26:13.286Z,28.51
2023-05-23T08:27:46.787Z,28.84
2023-05-23T08:29:37.464Z,28.32
2023-05-23T08:31:11.765Z,27.86
2023-05-23T08:32:45.184Z,27.50
2023-05-23T08:34:19.942Z,28.06
2023-05-23T08:35:54.309Z,28.26
2023-05-23T08:37:27.629Z,28.45
2023-05-23T08:39:01.416Z,28.65
2023-05-23T08:40:38.074Z,28.90
2023-05-23T08:42:17.827Z,28.86
2023-05-23T08:43:51.640Z,29.03
2023-05-23T08:45:32.213Z,29.21
2023-05-23T08:47:06.688Z,28.94
2023-05-23T08:48:55.134Z,28.50
2023-05-23T08:50:32.053Z,28.08
2023-05-23T08:52:06.294Z,27.65
2023-05-23T08:53:44.471Z,27.15
2023-05-23T08:55:19.195Z,26.59
2023-05-23T08:56:52.985Z,26.07
2023-05-23T08:58:29.370Z,26.10
2023-05-23T09:00:10.491Z,26.53
2023-05-23T09:01:46.521Z,26.59
2023-05-23T09:03:22.325Z,26.60
2023-05-23T09:05:05.795Z,26.75
2023-05-23T09:06:40.611Z,26.94
2023-05-23T09:08:15.527Z,27.00
2023-05-23T09:09:49.060Z,26.91
2023-05-23T09:11:24.451Z,26.66
2023-05-23T09:12:58.476Z,26.59
2023-05-23T09:14:32.117Z,26.85
2023-05-23T09:16:12.818Z,26.93
2023-05-23T09:18:02.088Z,26.37
2023-05-23T09:19:42.640Z,26.20
2023-05-23T09:21:33.867Z,26.12
2023-05-23T09:23:39.543Z,26.47
2023-05-23T09:25:13.194Z,26.99
2023-05-23T09:26:48.740Z,27.05
2023-05-23T09:28:22.455Z,26.47
2023-05-23T09:29:55.778Z,26.30
2023-05-23T09:31:33.730Z,26.02
2023-05-23T09:33:09.566Z,25.98
2023-05-23T09:34:43.865Z,25.92
2023-05-23T09:36:17.987Z,26.11
2023-05-23T09:37:52.722Z,26.41
2023-05-23T09:39:27.344Z,26.82
2023-05-23T09:41:01.002Z,27.00
2023-05-23T09:42:35.343Z,27.04
2023-05-23T09:44:10.668Z,26.91
2023-05-23T09:45:43.941Z,26.45
2023-05-23T09:47:17.646Z,26.15
2023-05-23T09:48:52.369Z,26.33
2023-05-23T09:50:32.250Z,26.40
2023-05-23T09:52:05.902Z,26.91
2023-05-23T09:53:39.076Z,27.34
2023-05-23T09:55:14.102Z,27.55
2023-05-23T09:56:47.951Z,27.54
2023-05-23T09:58:22.024Z,27.05
2023-05-23T09:59:56.497Z,26.89
2023-05-23T10:01:32.927Z,26.97
2023-05-23T10:03:13.372Z,27.02
2023-05-23T10:04:46.919Z,26.73
2023-05-23T10:06:26.996Z,26.56
2023-05-23T10:08:03.011Z,26.54
2023-05-23T10:09:39.501Z,26.42
2023-05-23T10:11:51.640Z,26.41
2023-05-23T10:13:29.966Z,26.44
2023-05-23T10:15:05.631Z,26.60
2023-05-23T10:16:45.481Z,26.59
2023-05-23T10:18:27.461Z,26.35
2023-05-23T10:20:08.653Z,26.50
2023-05-23T10:21:47.308Z,26.47
2023-05-23T10:23:21.305Z,26.36
2023-05-23T10:24:55.371Z,26.16
2023-05-23T10:26:29.119Z,26.02
2023-05-23T10:28:04.385Z,25.87
2023-05-23T10:29:39.742Z,26.13
2023-05-23T10:31:13.970Z,26.14
2023-05-23T10:32:47.660Z,26.02
2023-05-23T10:34:27.352Z,26.10
2023-05-23T10:36:10.395Z,26.00
2023-05-23T10:37:50.520Z,26.11
2023-05-23T10:39:44.516Z,26.25
2023-05-23T10:41:24.959Z,26.47
2023-05-23T10:43:05.721Z,26.58
2023-05-23T10:44:40.718Z,26.67
2023-05-23T10:46:14.843Z,26.62
2023-05-23T10:47:49.741Z,26.69
2023-05-23T10:49:23.475Z,26.70
2023-05-23T10:51:07.485Z,26.61
2023-05-23T10:52:44.119Z,26.49
2023-05-23T10:54:19.818Z,26.44
2023-05-23T10:55:53.512Z,26.41
2023-05-23T10:57:28.212Z,26.54
2023-05-23T10:59:02.662Z,26.47
2023-05-23T11:00:37.520Z,26.37
2023-05-23T11:02:16.319Z,26.05
2023-05-23T11:03:55.697Z,25.65
2023-05-23T11:05:32.038Z,25.53
2023-05-23T11:07:06.072Z,25.40
2023-05-23T11:08:48.542Z,25.07
2023-05-23T11:10:24.340Z,24.87
2023-05-23T11:12:02.855Z,24.87
2023-05-23T11:14:03.664Z,24.76
2023-05-23T11:15:45.872Z,24.65
2023-05-23T11:17:20.868Z,24.83
2023-05-23T11:18:54.332Z,25.14
2023-05-23T11:20:28.794Z,25.38
2023-05-23T11:22:03.539Z,25.51
2023-05-23T11:23:43.330Z,25.65
2023-05-23T11:25:17.052Z,25.69
2023-05-23T11:26:55.459Z,25.82
2023-05-23T11:28:28.687Z,25.86
2023-05-23T11:30:04.908Z,25.87
2023-05-23T11:31:40.782Z,26.17
2023-05-23T11:33:15.626Z,26.21
2023-05-23T11:34:48.981Z,26.25
2023-05-23T11:36:23.017Z,26.23
2023-05-23T11:37:59.075Z,26.31
2023-05-23T11:39:32.543Z,26.32
2023-05-23T11:41:06.448Z,26.48
2023-05-23T11:42:43.271Z,26.47
2023-05-23T11:44:16.710Z,26.45
2023-05-23T11:45:50.021Z,26.36
2023-05-23T11:47:24.709Z,26.40
2023-05-23T11:48:57.989Z,26.38
2023-05-23T11:50:31.207Z,26.36
2023-05-23T11:52:05.367Z,26.40
2023-05-23T11:53:38.713Z,26.53
2023-05-23T11:55:12.238Z,26.42
2023-05-23T11:56:46.247Z,26.32
2023-05-23T11:58:19.871Z,26.37
2023-05-23T11:59:53.234Z,26.42
2023-05-23T12:01:31.416Z,26.39
2023-05-23T12:03:10.098Z,26.34
2023-05-23T12:04:43.673Z,26.25
2023-05-23T12:06:17.402Z,26.20
2023-05-23T12:07:51.158Z,26.17
2023-05-23T12:09:24.309Z,26.36
2023-05-23T12:10:59.878Z,26.49
2023-05-23T12:12:33.854Z,26.70
2023-05-23T12:14:07.875Z,26.79
2023-05-23T12:15:41.068Z,26.82
2023-05-23T12:17:15.170Z,26.86
2023-05-23T12:18:49.940Z,26.84
2023-05-23T12:20:23.925Z,26.59
2023-05-23T12:21:57.147Z,26.39
2023-05-23T12:23:33.826Z,26.23
2023-05-23T12:25:10.360Z,26.27
2023-05-23T12:26:53.959Z,26.35
2023-05-23T12:28:37.348Z,26.48
2023-05-23T12:30:11.856Z,26.56
2023-05-23T12:31:45.405Z,26.59
2023-05-23T12:33:20.858Z,26.66
2023-05-23T12:34:55.724Z,26.65
2023-05-23T12:36:32.418Z,26.65
2023-05-23T12:38:08.068Z,26.59
2023-05-23T12:39:44.705Z,26.56
2023-05-23T12:41:20.218Z,26.71
2023-05-23T12:42:56.754Z,26.73
2023-05-23T12:44:31.888Z,26.68
2023-05-23T12:46:06.351Z,26.64
2023-05-23T12:47:39.644Z,26.61
2023-05-23T12:49:13.057Z,26.70
2023-05-23T12:50:47.779Z,26.79
2023-05-23T12:52:21.197Z,26.83
2023-05-23T12:53:56.837Z,26.87
2023-05-23T12:55:30.068Z,26.69
2023-05-23T12:57:03.253Z,26.50
2023-05-23T12:58:37.170Z,26.51
2023-05-23T13:00:11.943Z,26.65
2023-05-23T13:01:45.239Z,26.71
2023-05-23T13:03:18.409Z,26.73
2023-05-23T13:04:52.007Z,26.60
2023-05-23T13:06:26.825Z,26.42
2023-05-23T13:08:00.323Z,26.34
2023-05-23T13:09:33.514Z,26.33
2023-05-23T13:11:06.955Z,26.27
2023-05-23T13:12:40.223Z,26.28
2023-05-23T13:14:13.770Z,26.34
2023-05-23T13:15:48.263Z,26.33
2023-05-23T13:17:23.946Z,26.35
2023-05-23T13:19:00.069Z,26.19
2023-05-23T13:20:34.342Z,26.06
2023-05-23T13:22:10.583Z,25.89
2023-05-23T13:23:43.920Z,25.94
2023-05-23T13:25:17.634Z,25.89
2023-05-23T13:26:51.043Z,25.90
2023-05-23T13:28:24.535Z,25.85
2023-05-23T13:29:57.922Z,25.84
2023-05-23T13:31:31.451Z,25.97
2023-05-23T13:33:05.379Z,26.02
2023-05-23T13:34:39.005Z,26.07
2023-05-23T13:36:12.436Z,26.09
2023-05-23T13:37:47.357Z,26.14
2023-05-23T13:39:21.232Z,26.12
2023-05-23T13:40:54.717Z,26.14
2023-05-23T13:42:28.175Z,26.12
2023-05-23T13:44:01.624Z,26.09
2023-05-23T13:45:34.984Z,26.07
2023-05-23T13:47:13.283Z,26.03
2023-05-23T13:48:46.996Z,26.08
2023-05-23T13:50:20.951Z,26.09
2023-05-23T13:51:54.257Z,26.14
2023-05-23T13:53:28.853Z,26.23
2023-05-23T13:55:02.640Z,26.25
2023-05-23T13:56:36.966Z,26.39
2023-05-23T13:58:10.284Z,26.51
2023-05-23T13:59:43.421Z,26.61
2023-05-23T14:01:17.401Z,26.72
2023-05-23T14:02:50.779Z,26.71
2023-05-23T14:04:24.341Z,26.67
2023-05-23T14:05:57.480Z,26.54
2023-05-23T14:07:30.834Z,26.50
2023-05-23T14:09:06.517Z,26.54
2023-05-23T14:10:40.106Z,26.41
2023-05-23T14:12:13.528Z,26.17
2023-05-23T14:13:46.923Z,25.78
2023-05-23T14:15:19.268Z,25.63
2023-05-23T14:16:52.763Z,25.54
2023-05-23T14:18:25.988Z,25.31
2023-05-23T14:19:59.533Z,25.01
2023-05-23T14:21:33.149Z,24.82
2023-05-23T14:23:06.595Z,24.50
2023-05-23T14:24:41.210Z,24.36
2023-05-23T14:26:14.775Z,24.25
2023-05-23T14:27:48.117Z,24.19
2023-05-23T14:29:21.572Z,24.09
2023-05-23T14:30:55.711Z,23.93
2023-05-23T14:32:29.124Z,23.93
2023-05-23T14:34:02.605Z,23.93
2023-05-23T14:35:36.312Z,23.87
2023-05-23T14:37:09.510Z,23.77
2023-05-23T14:38:45.514Z,23.73
2023-05-23T14:40:20.522Z,23.67
2023-05-23T14:41:53.824Z,23.60
2023-05-23T14:43:27.101Z,23.53
2023-05-23T14:45:00.575Z,23.53
2023-05-23T14:46:33.941Z,23.61
2023-05-23T14:48:07.507Z,23.71
2023-05-23T14:49:40.656Z,23.71
2023-05-23T14:51:26.930Z,23.72
2023-05-23T14:53:08.654Z,23.61
2023-05-23T14:54:43.654Z,23.60
2023-05-23T14:56:18.617Z,23.51
2023-05-23T14:57:52.320Z,23.52
2023-05-23T14:59:25.697Z,23.52
2023-05-23T15:00:58.915Z,23.49
2023-05-23T15:02:32.504Z,23.56
2023-05-23T15:04:09.396Z,23.62
2023-05-23T15:05:45.790Z,23.64
2023-05-23T15:07:20.854Z,23.68
2023-05-23T15:08:54.237Z,23.65
2023-05-23T15:10:28.422Z,23.68
2023-05-23T15:12:06.082Z,23.65
2023-05-23T15:13:39.614Z,23.69
2023-05-23T15:15:13.181Z,23.67
2023-05-23T15:16:48.839Z,23.57
2023-05-23T15:18:38.917Z,23.46
2023-05-23T15:20:14.471Z,23.36
2023-05-23T15:21:51.061Z,23.31
2023-05-23T15:23:25.046Z,23.33
2023-05-23T15:24:59.856Z,23.28
2023-05-23T15:26:36.526Z,23.26
2023-05-23T15:28:12.766Z,23.29
2023-05-23T15:29:47.622Z,23.36
2023-05-23T15:31:21.031Z,23.36
2023-05-23T15:32:57.311Z,23.38
2023-05-23T15:34:31.762Z,23.37
2023-05-23T15:36:05.441Z,23.42
2023-05-23T15:37:38.680Z,23.44
2023-05-23T15:39:12.678Z,23.43
2023-05-23T15:40:46.990Z,23.43
2023-05-23T15:42:20.558Z,23.39
2023-05-23T15:43:55.205Z,23.34
2023-05-23T15:45:28.502Z,23.35
2023-05-23T15:47:01.700Z,23.38
2023-05-23T15:48:35.131Z,23.42
2023-05-23T15:50:09.315Z,23.49
2023-05-23T15:51:42.821Z,23.55
2023-05-23T15:53:16.061Z,23.55
2023-05-23T15:54:49.515Z,23.63
2023-05-23T15:56:22.801Z,23.76
2023-05-23T15:57:56.123Z,23.79
2023-05-23T15:59:31.570Z,23.77
2023-05-23T16:01:05.032Z,23.63
2023-05-23T16:02:38.648Z,23.56
2023-05-23T16:04:12.287Z,23.64
2023-05-23T16:05:45.613Z,23.70
2023-05-23T16:07:19.989Z,23.74
2023-05-23T16:08:53.298Z,23.58
2023-05-23T16:10:26.626Z,23.48
2023-05-23T16:12:00.005Z,23.54
2023-05-23T16:13:33.572Z,23.69
2023-05-23T16:15:09.450Z,23.76
2023-05-23T16:16:43.038Z,23.81
2023-05-23T16:18:16.483Z,23.90
2023-05-23T16:19:49.972Z,23.82
2023-05-23T16:21:23.160Z,23.82
2023-05-23T16:22:56.608Z,23.81
2023-05-23T16:24:29.797Z,23.87
2023-05-23T16:26:03.574Z,23.88
2023-05-23T16:27:37.087Z,23.85
2023-05-23T16:29:12.281Z,23.73
2023-05-23T16:30:47.016Z,23.63
2023-05-23T16:32:20.518Z,23.51
2023-05-23T16:33:53.694Z,23.41
2023-05-23T16:35:27.181Z,23.34
2023-05-23T16:37:00.695Z,23.37
2023-05-23T16:38:34.296Z,23.41
2023-05-23T16:40:08.656Z,23.45
2023-05-23T16:41:42.177Z,23.46
2023-05-23T16:43:14.518Z,23.36
2023-05-23T16:44:47.953Z,23.33
2023-05-23T16:46:23.273Z,23.33
2023-05-23T16:47:56.739Z,23.36
2023-05-23T16:49:29.888Z,23.26
2023-05-23T16:51:03.802Z,23.21
2023-05-23T16:52:37.057Z,23.22
2023-05-23T16:54:10.468Z,23.19
2023-05-23T16:55:43.739Z,23.20
2023-05-23T16:57:17.302Z,23.12
2023-05-23T16:58:50.639Z,23.13
2023-05-23T17:00:24.370Z,23.17
2023-05-23T17:01:58.860Z,23.15
2023-05-23T17:03:32.808Z,23.07
2023-05-23T17:05:06.635Z,23.06
2023-05-23T17:06:40.072Z,23.03
2023-05-23T17:08:13.298Z,23.05
2023-05-23T17:09:47.015Z,23.05
2023-05-23T17:11:20.199Z,23.06
2023-05-23T17:12:53.732Z,23.02
2023-05-23T17:14:26.888Z,22.97
2023-05-23T17:16:00.517Z,22.96
2023-05-23T17:17:35.270Z,22.94
2023-05-23T17:19:08.730Z,22.90
2023-05-23T17:20:42.173Z,22.84
2023-05-23T17:22:15.876Z,22.79
2023-05-23T17:23:48.997Z,22.73
2023-05-23T17:25:22.524Z,22.66
2023-05-23T17:26:55.670Z,22.60
2023-05-23T17:28:29.208Z,22.57
2023-05-23T17:30:05.097Z,22.49
2023-05-23T17:31:38.481Z,22.40
2023-05-23T17:33:13.287Z,22.33
2023-05-23T17:34:47.000Z,22.22
2023-05-23T17:36:20.364Z,22.06
2023-05-23T17:37:57.609Z,21.97
2023-05-23T17:39:30.783Z,21.89
2023-05-23T17:41:04.271Z,21.83
2023-05-23T17:42:37.410Z,21.79
2023-05-23T17:44:10.734Z,21.75
2023-05-23T17:45:43.869Z,21.72
2023-05-23T17:47:18.776Z,21.65
2023-05-23T17:48:53.312Z,21.57
2023-05-23T17:50:26.863Z,21.49
2023-05-23T17:52:04.734Z,21.43
2023-05-23T17:53:41.556Z,21.42
2023-05-23T17:55:14.833Z,21.43
2023-05-23T17:56:48.160Z,21.43
2023-05-23T17:58:21.618Z,21.43
2023-05-23T17:59:55.234Z,21.41
2023-05-23T18:01:29.272Z,21.39
2023-05-23T18:03:02.788Z,21.37
2023-05-23T18:04:37.677Z,21.37
2023-05-23T18:06:11.148Z,21.32
2023-05-23T18:07:44.234Z,21.17
2023-05-23T18:09:17.706Z,21.07
2023-05-23T18:10:51.288Z,21.00
2023-05-23T18:12:24.866Z,20.84
2023-05-23T18:13:58.032Z,20.66
2023-05-23T18:15:31.596Z,20.54
2023-05-23T18:17:04.820Z,20.45
2023-05-23T18:18:38.464Z,20.28
2023-05-23T18:20:13.928Z,20.16
2023-05-23T18:21:47.499Z,19.96
2023-05-23T18:23:20.869Z,19.87
2023-05-23T18:24:54.329Z,19.76
2023-05-23T18:26:28.261Z,19.68
2023-05-23T18:28:03.952Z,19.65
2023-05-23T18:29:37.350Z,19.59
2023-05-23T18:31:10.879Z,19.56
2023-05-23T18:32:44.141Z,19.56
2023-05-23T18:34:17.633Z,19.55
2023-05-23T18:35:52.699Z,19.50
2023-05-23T18:37:27.743Z,19.46
2023-05-23T18:39:01.069Z,19.42
2023-05-23T18:40:34.427Z,19.39
2023-05-23T18:42:08.064Z,19.45
2023-05-23T18:43:41.478Z,19.43
2023-05-23T18:45:14.682Z,19.45
2023-05-23T18:46:48.068Z,19.30
2023-05-23T18:48:21.721Z,19.22
2023-05-23T18:49:55.264Z,19.22
2023-05-23T18:51:29.840Z,19.19
2023-05-23T18:53:03.314Z,19.16
2023-05-23T18:54:36.694Z,19.04
2023-05-23T18:56:10.361Z,18.99
2023-05-23T18:57:43.540Z,18.90
2023-05-23T18:59:17.086Z,18.88
2023-05-23T19:00:50.305Z,18.86
2023-05-23T19:02:24.129Z,18.84
2023-05-23T19:03:57.852Z,18.82
2023-05-23T19:05:31.507Z,18.71
2023-05-23T19:07:07.561Z,18.71
2023-05-23T19:08:42.808Z,18.72
2023-05-23T19:10:15.951Z,18.70
2023-05-23T19:11:49.340Z,18.70
2023-05-23T19:13:22.577Z,18.67
2023-05-23T19:14:55.882Z,18.63
2023-05-23T19:16:29.533Z,18.57
2023-05-23T19:18:02.961Z,18.55
2023-05-23T19:19:36.773Z,18.53
2023-05-23T19:21:10.503Z,18.49
2023-05-23T19:24:23.581Z,18.45
2023-05-23T19:25:56.760Z,18.43
2023-05-23T19:27:30.184Z,18.39
2023-05-23T19:29:03.452Z,18.37
2023-05-23T19:30:38.415Z,18.34
2023-05-23T19:32:11.664Z,18.29
2023-05-23T19:33:45.406Z,18.21
2023-05-23T19:35:18.732Z,18.18
2023-05-23T19:36:52.205Z,18.11
2023-05-23T19:38:26.918Z,18.11
2023-05-23T19:40:00.909Z,18.05
2023-05-23T19:41:34.179Z,18.07
2023-05-23T19:43:07.484Z,18.04
2023-05-23T19:44:40.872Z,17.99
2023-05-23T19:46:16.099Z,17.94
2023-05-23T19:47:49.462Z,17.88
2023-05-23T19:49:22.872Z,17.87
2023-05-23T19:50:56.020Z,17.88
2023-05-23T19:52:29.741Z,17.92
2023-05-23T19:54:04.327Z,17.87
2023-05-23T19:55:37.624Z,17.89
2023-05-23T19:57:10.753Z,17.84
2023-05-23T19:58:44.409Z,17.77
2023-05-23T20:00:18.448Z,17.68
2023-05-23T20:01:51.877Z,17.61
2023-05-23T20:03:25.114Z,17.61
2023-05-23T20:04:57.642Z,17.63
2023-05-23T20:06:31.380Z,17.61
2023-05-23T20:08:04.910Z,17.49
2023-05-23T20:09:39.475Z,17.28
2023-05-23T20:11:13.103Z,17.09
2023-05-23T20:12:46.250Z,17.04
2023-05-23T20:14:19.750Z,17.04
2023-05-23T20:15:53.127Z,17.03
2023-05-23T20:17:26.743Z,17.04
2023-05-23T20:19:00.010Z,17.03
2023-05-23T20:20:33.471Z,17.01
2023-05-23T20:22:06.939Z,16.98
2023-05-23T20:23:44.305Z,16.94
2023-05-23T20:25:17.952Z,16.90
2023-05-23T20:26:51.493Z,16.87
2023-05-23T20:28:24.685Z,16.88